Time;durP1;ratioP1;P1;durP2;ratioP2;P2;SDS_P1;SDS_P2;PMS_P1;PMS_P2;Temp;Humidity;BMP_temperature;BMP_pressure;BME280_temperature;BME280_humidity;BME280_pressure;Samples;Min_cycle;Max_cycle;Signal;HPM_P1;HPM_P2
2023/05/25 00:01:25;;;;;;;22.67;8.55;;;;;;;;;;5034459;28;20431;-57
2023/05/25 00:03:51;;;;;;;20.77;9.13;;;;;;;;;;5051807;28;20032;-61
2023/05/25 00:06:18;;;;;;;23.20;9.70;;;;;;;;;;5051426;28;20078;-60
2023/05/25 00:08:45;;;;;;;22.10;8.73;;;;;;;;;;5051775;28;20025;-61
2023/05/25 00:11:11;;;;;;;19.38;9.35;;;;;;;;;;5051646;28;20044;-60
2023/05/25 00:13:38;;;;;;;20.80;10.23;;;;;;;;;;5051580;28;20439;-60
2023/05/25 00:16:05;;;;;;;24.17;9.07;;;;;;;;;;5051109;28;20048;-60
2023/05/25 00:18:32;;;;;;;25.65;10.00;;;;;;;;;;5051831;28;20096;-59
2023/05/25 00:21:04;;;;;;;20.42;9.75;;;;;;;;;;5033899;28;20362;-57
2023/05/25 00:23:30;;;;;;;21.38;9.55;;;;;;;;;;5063659;22;20038;-63
2023/05/25 00:25:56;;;;;;;23.80;10.25;;;;;;;;;;5009899;28;20034;-61
2023/05/25 00:28:22;;;;;;;20.85;9.38;;;;;;;;;;5010555;28;20483;-63
2023/05/25 00:30:48;;;;;;;20.77;9.75;;;;;;;;;;5010728;28;20498;-62
2023/05/25 00:33:15;;;;;;;20.40;9.35;;;;;;;;;;5010887;28;20057;-62
2023/05/25 00:35:45;;;;;;;23.75;10.10;;;;;;;;;;5008544;28;20068;-61
2023/05/25 00:38:14;;;;;;;25.50;9.32;;;;;;;;;;5010599;28;20029;-62
2023/05/25 00:40:40;;;;;;;26.45;9.88;;;;;;;;;;5010607;28;20127;-64
2023/05/25 00:43:10;;;;;;;26.38;11.57;;;;;;;;;;5009144;28;20034;-63
2023/05/25 00:45:36;;;;;;;23.67;10.25;;;;;;;;;;5008410;28;20022;-64
2023/05/25 00:48:03;;;;;;;21.73;9.77;;;;;;;;;;5009207;28;20157;-65
2023/05/25 00:50:40;;;;;;;19.55;9.23;;;;;;;;;;5009362;28;20121;-63
2023/05/25 00:53:07;;;;;;;23.55;9.27;;;;;;;;;;5012591;28;20021;-62
2023/05/25 00:55:37;;;;;;;25.77;10.07;;;;;;;;;;5012268;28;20434;-62
2023/05/25 00:58:03;;;;;;;24.17;9.13;;;;;;;;;;5013040;28;20029;-64
2023/05/25 01:00:30;;;;;;;23.10;9.60;;;;;;;;;;5014535;28;20030;-63
2023/05/25 01:02:58;;;;;;;25.00;10.30;;;;;;;;;;5014278;28;20026;-62
2023/05/25 01:05:27;;;;;;;27.30;11.68;;;;;;;;;;5013659;28;20022;-62
2023/05/25 01:07:54;;;;;;;22.70;9.45;;;;;;;;;;5014256;28;20448;-63
2023/05/25 01:10:21;;;;;;;21.55;10.27;;;;;;;;;;5014179;28;20034;-62
2023/05/25 01:12:49;;;;;;;22.95;9.98;;;;;;;;;;5014202;28;20036;-63
2023/05/25 01:15:15;;;;;;;24.00;9.90;;;;;;;;;;5011983;28;20093;-62
2023/05/25 01:17:42;;;;;;;20.70;9.65;;;;;;;;;;5013984;28;20500;-64
2023/05/25 01:20:08;;;;;;;24.40;8.93;;;;;;;;;;5012731;28;20022;-61
2023/05/25 01:22:37;;;;;;;26.73;9.57;;;;;;;;;;5009069;28;20037;-63
2023/05/25 01:25:03;;;;;;;;;;;;;;;;;;5008936;28;20096;-61
2023/05/25 01:27:34;;;;;;;23.33;9.55;;;;;;;;;;5013659;28;20372;-63
2023/05/25 01:30:00;;;;;;;25.50;10.38;;;;;;;;;;5013925;28;20453;-63
2023/05/25 01:32:27;;;;;;;23.33;9.23;;;;;;;;;;5013821;28;20089;-63
2023/05/25 01:34:54;;;;;;;20.25;9.35;;;;;;;;;;5012963;28;20018;-62
2023/05/25 01:37:23;;;;;;;23.42;10.20;;;;;;;;;;5013751;28;20084;-63
2023/05/25 01:39:49;;;;;;;22.63;10.00;;;;;;;;;;5013830;28;20034;-63
2023/05/25 01:42:15;;;;;;;23.80;9.90;;;;;;;;;;5013748;28;20025;-61
2023/05/25 01:44:41;;;;;;;22.38;9.52;;;;;;;;;;5012084;28;20112;-62
2023/05/25 01:47:10;;;;;;;22.52;10.20;;;;;;;;;;5013296;28;20105;-63
2023/05/25 01:49:42;;;;;;;22.92;9.23;;;;;;;;;;5013812;28;20114;-64
2023/05/25 01:52:15;;;;;;;21.55;9.05;;;;;;;;;;5013687;28;20109;-62
2023/05/25 01:54:44;;;;;;;22.20;9.25;;;;;;;;;;5012610;28;20028;-63
2023/05/25 01:57:12;;;;;;;22.83;9.48;;;;;;;;;;5013837;28;20390;-64
2023/05/25 01:59:38;;;;;;;21.07;9.07;;;;;;;;;;5013379;28;20068;-60
2023/05/25 02:02:05;;;;;;;24.00;9.38;;;;;;;;;;5013270;28;20617;-61
2023/05/25 02:04:32;;;;;;;22.98;9.75;;;;;;;;;;5012386;28;20478;-63
2023/05/25 02:06:58;;;;;;;23.48;9.38;;;;;;;;;;5013118;28;20105;-63
2023/05/25 02:09:24;;;;;;;20.65;9.38;;;;;;;;;;5013077;28;20121;-59
2023/05/25 02:11:50;;;;;;;21.70;9.85;;;;;;;;;;5024692;28;20034;-62
2023/05/25 02:14:16;;;;;;;25.63;10.05;;;;;;;;;;5030948;28;20033;-62
2023/05/25 02:16:44;;;;;;;31.17;12.57;;;;;;;;;;5032983;28;20030;-63
2023/05/25 02:19:11;;;;;;;;;;;;;;;;;;5033333;28;20079;-62
2023/05/25 02:21:37;;;;;;;24.95;9.20;;;;;;;;;;5032791;28;19905;-62
2023/05/25 02:24:03;;;;;;;26.20;10.38;;;;;;;;;;5032175;28;20036;-60
2023/05/25 02:26:29;;;;;;;23.83;9.90;;;;;;;;;;5032575;28;20114;-61
2023/05/25 02:28:55;;;;;;;23.38;10.30;;;;;;;;;;5032535;28;20080;-62
2023/05/25 02:31:21;;;;;;;24.17;10.60;;;;;;;;;;5032628;28;20055;-63
2023/05/25 02:33:47;;;;;;;22.67;10.10;;;;;;;;;;5032397;28;20025;-62
2023/05/25 02:36:13;;;;;;;21.67;9.50;;;;;;;;;;5031918;28;20410;-63
2023/05/25 02:38:39;;;;;;;24.23;9.70;;;;;;;;;;5032427;28;20060;-63
2023/05/25 02:41:05;;;;;;;20.88;9.95;;;;;;;;;;5032216;28;20057;-62
2023/05/25 02:43:31;;;;;;;24.52;10.23;;;;;;;;;;5032392;28;20057;-61
2023/05/25 02:45:57;;;;;;;23.98;11.10;;;;;;;;;;5031481;28;20033;-63
2023/05/25 02:48:23;;;;;;;23.13;10.68;;;;;;;;;;5032193;28;20381;-63
2023/05/25 02:50:49;;;;;;;26.25;11.50;;;;;;;;;;5032834;28;20110;-63
2023/05/25 02:53:15;;;;;;;23.63;11.63;;;;;;;;;;5032238;28;20021;-61
2023/05/25 02:55:42;;;;;;;23.52;10.95;;;;;;;;;;5031489;28;20067;-63
2023/05/25 02:58:08;;;;;;;23.05;11.13;;;;;;;;;;5031852;28;20026;-63
2023/05/25 03:00:34;;;;;;;21.85;10.48;;;;;;;;;;5030871;28;20493;-63
2023/05/25 03:03:00;;;;;;;22.70;11.00;;;;;;;;;;5031641;28;20116;-60
2023/05/25 03:05:26;;;;;;;24.05;10.77;;;;;;;;;;5030962;28;20059;-63
2023/05/25 03:07:53;;;;;;;24.85;11.48;;;;;;;;;;5031686;28;20473;-62
2023/05/25 03:10:19;;;;;;;24.63;11.32;;;;;;;;;;5031674;28;20036;-59
2023/05/25 03:12:45;;;;;;;23.30;12.32;;;;;;;;;;5030466;28;20389;-59
2023/05/25 03:15:12;;;;;;;22.13;10.93;;;;;;;;;;5030203;28;20029;-58
2023/05/25 03:17:38;;;;;;;26.50;12.18;;;;;;;;;;5031460;28;20029;-62
2023/05/25 03:20:05;;;;;;;25.90;12.55;;;;;;;;;;5031245;28;20112;-62
2023/05/25 03:22:31;;;;;;;25.88;10.43;;;;;;;;;;5031357;28;20108;-60
2023/05/25 03:24:58;;;;;;;26.52;14.02;;;;;;;;;;5030571;28;20037;-59
2023/05/25 03:27:24;;;;;;;25.38;11.27;;;;;;;;;;5029883;28;20033;-67
2023/05/25 03:29:50;;;;;;;26.95;11.98;;;;;;;;;;5030018;28;20021;-64
2023/05/25 03:32:16;;;;;;;24.30;11.45;;;;;;;;;;5031164;28;20033;-61
2023/05/25 03:34:43;;;;;;;25.92;12.18;;;;;;;;;;5030453;28;20113;-60
2023/05/25 03:37:09;;;;;;;28.58;11.43;;;;;;;;;;5031129;28;20441;-58
2023/05/25 03:39:35;;;;;;;28.42;12.43;;;;;;;;;;5031042;28;20053;-61
2023/05/25 03:42:02;;;;;;;25.17;11.68;;;;;;;;;;5031080;28;20022;-62
2023/05/25 03:44:28;;;;;;;26.98;12.18;;;;;;;;;;5030170;28;20036;-57
2023/05/25 03:46:54;;;;;;;25.25;11.75;;;;;;;;;;5030963;28;20398;-61
2023/05/25 03:49:20;;;;;;;26.48;13.25;;;;;;;;;;5030922;28;20089;-62
2023/05/25 03:51:46;;;;;;;23.92;11.30;;;;;;;;;;5030988;28;20087;-62
2023/05/25 03:54:12;;;;;;;26.23;12.75;;;;;;;;;;5030030;28;20022;-61
2023/05/25 03:56:38;;;;;;;25.35;12.07;;;;;;;;;;5030799;28;20402;-62
2023/05/25 03:59:04;;;;;;;29.20;13.68;;;;;;;;;;5031067;28;20033;-61
2023/05/25 04:01:30;;;;;;;27.35;12.52;;;;;;;;;;5029606;28;20033;-62
2023/05/25 04:03:56;;;;;;;24.70;11.70;;;;;;;;;;5030144;28;20083;-56
2023/05/25 04:06:24;;;;;;;27.63;12.23;;;;;;;;;;5030422;28;20025;-63
2023/05/25 04:08:50;;;;;;;23.65;11.48;;;;;;;;;;5030688;28;20025;-60
2023/05/25 04:11:17;;;;;;;25.23;11.73;;;;;;;;;;5030811;28;20433;-60
2023/05/25 04:13:43;;;;;;;27.40;11.10;;;;;;;;;;5030526;28;20382;-61
2023/05/25 04:16:11;;;;;;;26.02;12.45;;;;;;;;;;5030008;28;20075;-59
2023/05/25 04:18:37;;;;;;;26.42;11.82;;;;;;;;;;5030559;28;20025;-61
2023/05/25 04:21:03;;;;;;;28.05;12.30;;;;;;;;;;5029202;28;20524;-61
2023/05/25 04:23:29;;;;;;;32.30;13.00;;;;;;;;;;5030511;28;20025;-62
2023/05/25 04:25:56;;;;;;;22.45;11.48;;;;;;;;;;5029813;28;20026;-60
2023/05/25 04:28:22;;;;;;;23.60;11.80;;;;;;;;;;5029672;28;20033;-62
2023/05/25 04:30:48;;;;;;;24.40;12.07;;;;;;;;;;5030511;28;20026;-60
2023/05/25 04:33:14;;;;;;;26.25;12.13;;;;;;;;;;5030238;28;20108;-61
2023/05/25 04:35:40;;;;;;;24.60;12.77;;;;;;;;;;5029504;28;20033;-61
2023/05/25 04:38:06;;;;;;;26.17;12.32;;;;;;;;;;5006183;28;20065;-59
2023/05/25 04:40:34;;;;;;;25.88;11.95;;;;;;;;;;5008064;28;20034;-63
2023/05/25 04:43:00;;;;;;;20.90;11.73;;;;;;;;;;5010422;28;20033;-63
2023/05/25 04:45:28;;;;;;;23.88;12.60;;;;;;;;;;5009742;28;20034;-63
2023/05/25 04:47:55;;;;;;;24.17;11.85;;;;;;;;;;5008739;28;20105;-63
2023/05/25 04:50:22;;;;;;;25.70;12.65;;;;;;;;;;5010251;28;20018;-57
2023/05/25 04:52:48;;;;;;;26.45;12.02;;;;;;;;;;5010395;28;20052;-63
2023/05/25 04:55:14;;;;;;;27.35;12.85;;;;;;;;;;5009537;28;20026;-63
2023/05/25 04:57:40;;;;;;;24.33;11.05;;;;;;;;;;5010470;28;20056;-60
2023/05/25 05:00:09;;;;;;;25.23;12.75;;;;;;;;;;5008751;28;20038;-59
2023/05/25 05:02:35;;;;;;;28.23;12.30;;;;;;;;;;5010335;28;20449;-62
2023/05/25 05:05:01;;;;;;;29.90;13.25;;;;;;;;;;5009286;28;20022;-57
2023/05/25 05:07:27;;;;;;;21.35;12.85;;;;;;;;;;5007410;28;20030;-58
2023/05/25 05:09:53;;;;;;;27.38;13.75;;;;;;;;;;5004382;28;20217;-55
2023/05/25 05:12:20;;;;;;;26.92;12.70;;;;;;;;;;5008835;28;20022;-61
2023/05/25 05:14:46;;;;;;;24.52;11.65;;;;;;;;;;5009091;28;20025;-59
2023/05/25 05:17:12;;;;;;;24.00;12.82;;;;;;;;;;5009812;28;20026;-63
2023/05/25 05:19:38;;;;;;;29.05;16.27;;;;;;;;;;5009797;28;20033;-60
2023/05/25 05:22:04;;;;;;;25.65;12.02;;;;;;;;;;5008655;28;20159;-60
2023/05/25 05:24:30;;;;;;;31.45;12.98;;;;;;;;;;5007755;28;20046;-60
2023/05/25 05:26:56;;;;;;;26.27;12.80;;;;;;;;;;5010128;28;20037;-61
2023/05/25 05:29:22;;;;;;;26.33;12.13;;;;;;;;;;5009739;28;20116;-56
2023/05/25 05:31:48;;;;;;;30.95;12.65;;;;;;;;;;5009826;28;20018;-57
2023/05/25 05:34:14;;;;;;;27.38;12.07;;;;;;;;;;5007780;28;20496;-61
2023/05/25 05:36:40;;;;;;;26.40;13.13;;;;;;;;;;5009875;28;20049;-59
2023/05/25 05:39:06;;;;;;;25.58;12.52;;;;;;;;;;5011837;28;20067;-59
2023/05/25 05:41:32;;;;;;;24.88;12.93;;;;;;;;;;5013481;28;20033;-63
2023/05/25 05:44:00;;;;;;;27.77;13.05;;;;;;;;;;5011468;28;20034;-58
2023/05/25 05:46:26;;;;;;;26.83;11.85;;;;;;;;;;5011608;28;20466;-64
2023/05/25 05:48:52;;;;;;;24.50;12.13;;;;;;;;;;5012031;28;20130;-59
2023/05/25 05:51:18;;;;;;;22.88;11.57;;;;;;;;;;5013464;28;20026;-62
2023/05/25 05:53:44;;;;;;;24.63;12.35;;;;;;;;;;5013271;28;20033;-60
2023/05/25 05:56:16;;;;;;;24.02;11.65;;;;;;;;;;5007731;28;20516;-57
2023/05/25 05:58:42;;;;;;;23.85;13.45;;;;;;;;;;5012486;28;20034;-64
2023/05/25 06:01:08;;;;;;;28.13;12.40;;;;;;;;;;5013186;28;20026;-63
2023/05/25 06:03:34;;;;;;;23.58;12.15;;;;;;;;;;5013085;28;20029;-61
2023/05/25 06:06:01;;;;;;;24.63;12.82;;;;;;;;;;5012549;28;20018;-61
2023/05/25 06:08:26;;;;;;;21.73;12.20;;;;;;;;;;5011739;28;20032;-59
2023/05/25 06:10:52;;;;;;;23.75;13.15;;;;;;;;;;5012962;28;20021;-60
2023/05/25 06:13:19;;;;;;;24.77;13.63;;;;;;;;;;5011557;28;20018;-60
2023/05/25 06:15:45;;;;;;;23.92;11.55;;;;;;;;;;5010564;28;20394;-63
2023/05/25 06:18:11;;;;;;;20.67;11.75;;;;;;;;;;5013029;28;20025;-58
2023/05/25 06:20:37;;;;;;;23.27;12.82;;;;;;;;;;5011064;28;20033;-58
2023/05/25 06:23:03;;;;;;;25.02;12.60;;;;;;;;;;5011993;28;20494;-63
2023/05/25 06:25:29;;;;;;;20.75;12.05;;;;;;;;;;5028400;22;20116;-60
2023/05/25 06:27:55;;;;;;;24.23;11.23;;;;;;;;;;4995995;28;20084;-60
2023/05/25 06:30:21;;;;;;;21.20;12.00;;;;;;;;;;4996307;28;20516;-58
2023/05/25 06:32:47;;;;;;;22.63;11.73;;;;;;;;;;5013417;28;20072;-55
2023/05/25 06:35:18;;;;;;;22.35;12.38;;;;;;;;;;5012913;28;20390;-61
2023/05/25 06:37:44;;;;;;;24.25;13.50;;;;;;;;;;4993857;28;20018;-61
2023/05/25 06:40:11;;;;;;;29.38;14.45;;;;;;;;;;4992805;28;20121;-61
2023/05/25 06:42:37;;;;;;;28.95;12.75;;;;;;;;;;4984357;28;20037;-59
2023/05/25 06:45:04;;;;;;;27.77;12.20;;;;;;;;;;4988215;28;20104;-56
2023/05/25 06:47:30;;;;;;;24.95;11.90;;;;;;;;;;5007645;28;20103;-60
2023/05/25 06:49:56;;;;;;;28.67;12.65;;;;;;;;;;5005387;28;20022;-59
2023/05/25 06:52:22;;;;;;;23.42;11.93;;;;;;;;;;5013551;28;20018;-64
2023/05/25 06:54:48;;;;;;;23.20;12.02;;;;;;;;;;5012926;28;20026;-63
2023/05/25 06:57:14;;;;;;;24.23;12.52;;;;;;;;;;5013440;28;20029;-67
2023/05/25 06:59:40;;;;;;;22.50;12.90;;;;;;;;;;5013440;28;20029;-63
2023/05/25 07:02:06;;;;;;;28.58;13.18;;;;;;;;;;5007592;28;20406;-67
2023/05/25 07:04:33;;;;;;;24.40;12.73;;;;;;;;;;5001677;28;20106;-68
2023/05/25 07:06:59;;;;;;;25.77;12.50;;;;;;;;;;5008484;28;20018;-65
2023/05/25 07:09:25;;;;;;;20.90;13.13;;;;;;;;;;4998650;28;20106;-68
2023/05/25 07:11:51;;;;;;;20.92;12.45;;;;;;;;;;4963787;28;20401;-66
2023/05/25 07:14:17;;;;;;;24.70;12.35;;;;;;;;;;4994804;28;20026;-67
2023/05/25 07:16:46;;;;;;;21.10;12.88;;;;;;;;;;4995467;28;20029;-66
2023/05/25 07:19:13;;;;;;;21.13;12.13;;;;;;;;;;4996033;28;20024;-67
2023/05/25 07:21:39;;;;;;;20.95;12.77;;;;;;;;;;5010585;28;20431;-65
2023/05/25 07:24:05;;;;;;;24.55;12.93;;;;;;;;;;4993110;28;20031;-67
2023/05/25 07:26:32;;;;;;;23.70;12.68;;;;;;;;;;4993207;28;20049;-65
2023/05/25 07:28:58;;;;;;;26.83;13.50;;;;;;;;;;4992238;28;20023;-66
2023/05/25 07:31:24;;;;;;;21.20;12.38;;;;;;;;;;4993655;28;20463;-67
2023/05/25 07:33:50;;;;;;;20.63;11.23;;;;;;;;;;4993409;28;20022;-65
2023/05/25 07:36:16;;;;;;;28.90;13.95;;;;;;;;;;4991532;28;20026;-67
2023/05/25 07:38:42;;;;;;;23.35;12.80;;;;;;;;;;4993663;28;20038;-66
2023/05/25 07:41:08;;;;;;;22.55;12.70;;;;;;;;;;4993232;28;20112;-67
2023/05/25 07:43:34;;;;;;;23.45;12.80;;;;;;;;;;5002449;28;20082;-67
2023/05/25 07:46:01;;;;;;;19.92;12.52;;;;;;;;;;5004518;28;20033;-66
2023/05/25 07:48:27;;;;;;;24.85;13.38;;;;;;;;;;5012864;28;20088;-65
2023/05/25 07:50:53;;;;;;;23.63;13.73;;;;;;;;;;5012872;28;20101;-67
2023/05/25 07:53:20;;;;;;;21.00;13.55;;;;;;;;;;5012693;28;20032;-64
2023/05/25 07:55:46;;;;;;;26.60;14.70;;;;;;;;;;4995557;28;20113;-65
2023/05/25 07:58:12;;;;;;;24.58;13.05;;;;;;;;;;4973446;28;20132;-66
2023/05/25 08:00:38;;;;;;;27.42;14.10;;;;;;;;;;4981341;28;20034;-65
2023/05/25 08:03:04;;;;;;;26.45;13.38;;;;;;;;;;4992861;28;20045;-62
2023/05/25 08:05:30;;;;;;;24.88;12.65;;;;;;;;;;4992591;28;20443;-63
2023/05/25 08:07:56;;;;;;;22.60;13.23;;;;;;;;;;4992976;28;20026;-65
2023/05/25 08:10:22;;;;;;;22.95;12.27;;;;;;;;;;4993096;28;20026;-64
2023/05/25 08:12:48;;;;;;;23.95;12.88;;;;;;;;;;4993071;28;20018;-63
2023/05/25 08:15:15;;;;;;;22.55;13.80;;;;;;;;;;4998842;28;20462;-62
2023/05/25 08:17:41;;;;;;;24.23;13.50;;;;;;;;;;5002444;28;20041;-62
2023/05/25 08:20:07;;;;;;;21.58;12.77;;;;;;;;;;4998671;28;20037;-62
2023/05/25 08:22:34;;;;;;;23.10;12.98;;;;;;;;;;5002978;28;20398;-62
2023/05/25 08:25:00;;;;;;;23.70;12.82;;;;;;;;;;4998465;28;20124;-63
2023/05/25 08:27:26;;;;;;;22.75;11.90;;;;;;;;;;4994405;28;20387;-64
2023/05/25 08:29:52;;;;;;;26.45;12.57;;;;;;;;;;5012445;28;20033;-62
2023/05/25 08:32:18;;;;;;;23.90;13.50;;;;;;;;;;4995029;28;20022;-63
2023/05/25 08:34:45;;;;;;;26.45;13.60;;;;;;;;;;4994167;28;20022;-63
2023/05/25 08:37:11;;;;;;;23.90;13.48;;;;;;;;;;5012470;28;20029;-65
2023/05/25 08:39:37;;;;;;;25.60;13.65;;;;;;;;;;5012660;28;20022;-65
2023/05/25 08:42:03;;;;;;;24.95;12.73;;;;;;;;;;5012232;28;20479;-64
2023/05/25 08:44:29;;;;;;;22.65;13.18;;;;;;;;;;5011645;28;20093;-64
2023/05/25 08:46:56;;;;;;;24.48;13.23;;;;;;;;;;5013158;28;20434;-63
2023/05/25 08:49:22;;;;;;;22.65;12.60;;;;;;;;;;5011850;28;20404;-64
2023/05/25 08:51:49;;;;;;;22.95;12.65;;;;;;;;;;5011967;28;20558;-63
2023/05/25 08:54:17;;;;;;;22.77;12.60;;;;;;;;;;5010711;28;20115;-64
2023/05/25 08:56:51;;;;;;;23.13;13.32;;;;;;;;;;5012070;28;20080;-62
2023/05/25 08:59:22;;;;;;;22.83;12.90;;;;;;;;;;5011856;28;20029;-64
2023/05/25 09:01:52;;;;;;;29.02;14.13;;;;;;;;;;5015588;28;20033;-63
2023/05/25 09:04:18;;;;;;;21.42;12.63;;;;;;;;;;5015275;28;20033;-65
2023/05/25 09:06:46;;;;;;;24.33;12.40;;;;;;;;;;5012367;28;20041;-64
2023/05/25 09:09:12;;;;;;;21.42;12.85;;;;;;;;;;5012063;28;20516;-64
2023/05/25 09:11:39;;;;;;;21.17;12.48;;;;;;;;;;5012050;28;20026;-64
2023/05/25 09:14:07;;;;;;;22.35;12.68;;;;;;;;;;5013475;28;20073;-63
2023/05/25 09:16:33;;;;;;;25.23;13.18;;;;;;;;;;5015725;28;20010;-65
2023/05/25 09:18:59;;;;;;;23.17;13.65;;;;;;;;;;5015771;28;20065;-63
2023/05/25 09:21:26;;;;;;;23.23;11.93;;;;;;;;;;5015778;28;20049;-64
2023/05/25 09:23:52;;;;;;;24.63;13.40;;;;;;;;;;5005620;28;20529;-54
2023/05/25 09:26:18;;;;;;;23.20;13.18;;;;;;;;;;4995487;28;20100;-63
2023/05/25 09:28:45;;;;;;;21.58;12.32;;;;;;;;;;4996393;28;20022;-63
2023/05/25 09:31:12;;;;;;;23.13;11.80;;;;;;;;;;4995946;28;20054;-63
2023/05/25 09:33:41;;;;;;;25.50;13.35;;;;;;;;;;4994788;28;20403;-65
2023/05/25 09:36:07;;;;;;;25.00;12.32;;;;;;;;;;4993925;28;20474;-65
2023/05/25 09:38:33;;;;;;;24.40;12.63;;;;;;;;;;4995894;28;20098;-64
2023/05/25 09:40:59;;;;;;;24.27;13.40;;;;;;;;;;4995933;28;20038;-64
2023/05/25 09:43:26;;;;;;;23.52;12.80;;;;;;;;;;4995945;28;20026;-64
2023/05/25 09:45:52;;;;;;;28.02;13.65;;;;;;;;;;4994382;28;20502;-65
2023/05/25 09:48:20;;;;;;;20.42;12.63;;;;;;;;;;4995648;28;20023;-65
2023/05/25 09:50:46;;;;;;;19.45;11.68;;;;;;;;;;4996266;28;20355;-64
2023/05/25 09:53:12;;;;;;;24.50;13.00;;;;;;;;;;4995433;28;20479;-64
2023/05/25 09:55:38;;;;;;;23.85;12.52;;;;;;;;;;4994939;28;20105;-63
2023/05/25 09:58:06;;;;;;;23.63;12.02;;;;;;;;;;4992686;28;20027;-64
2023/05/25 10:00:32;;;;;;;22.58;12.18;;;;;;;;;;4984115;28;20501;-63
2023/05/25 10:02:59;;;;;;;20.50;12.65;;;;;;;;;;4986436;28;20026;-63
2023/05/25 10:05:25;;;;;;;20.87;11.53;;;;;;;;;;4984827;28;20034;-63
2023/05/25 10:07:53;;;;;;;22.02;12.40;;;;;;;;;;4982921;28;20049;-64
2023/05/25 10:10:19;;;;;;;21.75;12.30;;;;;;;;;;4985025;28;20041;-64
2023/05/25 10:12:48;;;;;;;22.83;12.00;;;;;;;;;;4984996;28;20022;-64
2023/05/25 10:15:16;;;;;;;23.65;12.48;;;;;;;;;;4983633;28;20110;-62
2023/05/25 10:17:50;;;;;;;22.13;11.43;;;;;;;;;;4985596;28;20023;-63
2023/05/25 10:20:16;;;;;;;21.48;12.02;;;;;;;;;;4986249;28;20066;-64
2023/05/25 10:22:56;;;;;;;19.08;12.35;;;;;;;;;;4982777;28;20134;-64
2023/05/25 10:25:22;;;;;;;25.30;12.98;;;;;;;;;;4983481;28;20034;-64
2023/05/25 10:27:51;;;;;;;21.23;12.75;;;;;;;;;;4984767;28;20030;-64
2023/05/25 10:30:18;;;;;;;20.92;12.23;;;;;;;;;;4986269;28;20160;-62
2023/05/25 10:32:46;;;;;;;19.08;11.70;;;;;;;;;;4984858;28;20018;-63
2023/05/25 10:35:13;;;;;;;20.55;12.15;;;;;;;;;;4983441;28;20567;-64
2023/05/25 10:37:39;;;;;;;21.75;12.95;;;;;;;;;;4985390;28;20088;-63
2023/05/25 10:40:09;;;;;;;23.77;13.25;;;;;;;;;;4982412;28;20037;-59
2023/05/25 10:42:37;;;;;;;22.10;12.32;;;;;;;;;;4983557;28;20022;-63
2023/05/25 10:45:04;;;;;;;19.67;12.68;;;;;;;;;;4981919;28;20110;-61
2023/05/25 10:47:30;;;;;;;20.45;12.25;;;;;;;;;;4981921;28;20022;-63
2023/05/25 10:49:57;;;;;;;22.30;13.90;;;;;;;;;;4984680;28;20513;-64
2023/05/25 10:52:30;;;;;;;27.73;13.95;;;;;;;;;;4983972;28;20546;-64
2023/05/25 10:54:56;;;;;;;22.52;12.93;;;;;;;;;;4981474;28;20026;-58
2023/05/25 10:57:23;;;;;;;23.60;12.70;;;;;;;;;;4974890;28;20097;-64
2023/05/25 10:59:50;;;;;;;20.48;13.13;;;;;;;;;;4977856;28;20022;-63
2023/05/25 11:02:16;;;;;;;20.88;13.18;;;;;;;;;;4974969;28;20039;-64
2023/05/25 11:04:43;;;;;;;22.23;13.05;;;;;;;;;;4974243;28;20440;-65
2023/05/25 11:07:15;;;;;;;23.58;14.82;;;;;;;;;;4981537;28;20050;-64
2023/05/25 11:09:44;;;;;;;27.10;19.50;;;;;;;;;;4982231;28;20026;-63
2023/05/25 11:12:19;;;;;;;21.77;13.73;;;;;;;;;;4974978;28;20030;-65
2023/05/25 11:15:05;;;;;;;19.58;13.23;;;;;;;;;;4974075;28;20443;-63
2023/05/25 11:17:31;;;;;;;20.23;14.02;;;;;;;;;;4974937;28;20070;-64
2023/05/25 11:20:05;;;;;;;19.42;13.50;;;;;;;;;;4974631;28;20111;-60
2023/05/25 11:22:31;;;;;;;23.48;14.50;;;;;;;;;;4974388;28;20050;-65
2023/05/25 11:24:57;;;;;;;18.85;13.40;;;;;;;;;;4990315;28;20423;-64
2023/05/25 11:27:24;;;;;;;22.33;13.85;;;;;;;;;;4993201;28;20122;-64
2023/05/25 11:29:51;;;;;;;19.65;13.75;;;;;;;;;;4994007;28;20084;-65
2023/05/25 11:32:17;;;;;;;20.55;13.10;;;;;;;;;;4994234;28;20105;-65
2023/05/25 11:34:45;;;;;;;19.20;13.15;;;;;;;;;;4993152;28;20520;-65
2023/05/25 11:37:12;;;;;;;19.05;13.00;;;;;;;;;;4992036;28;20043;-64
2023/05/25 11:39:38;;;;;;;19.20;12.75;;;;;;;;;;4993893;28;20596;-63
2023/05/25 11:42:10;;;;;;;19.98;12.77;;;;;;;;;;4993732;28;20038;-59
2023/05/25 11:44:36;;;;;;;19.38;12.82;;;;;;;;;;4991302;28;20033;-61
2023/05/25 11:47:21;;;;;;;18.80;13.63;;;;;;;;;;4992633;28;20114;-61
2023/05/25 11:49:48;;;;;;;18.20;13.60;;;;;;;;;;4993470;28;20037;-64
2023/05/25 11:52:18;;;;;;;19.73;13.07;;;;;;;;;;5001092;28;20018;-64
2023/05/25 11:54:44;;;;;;;21.48;14.07;;;;;;;;;;5011627;28;20501;-63
2023/05/25 11:57:17;;;;;;;17.83;12.10;;;;;;;;;;5013275;28;20101;-64
2023/05/25 11:59:48;;;;;;;20.65;12.57;;;;;;;;;;5013125;28;20426;-66
2023/05/25 12:02:14;;;;;;;18.35;13.10;;;;;;;;;;5012914;28;20033;-65
2023/05/25 12:04:42;;;;;;;20.27;12.95;;;;;;;;;;5012123;28;20037;-66
2023/05/25 12:07:08;;;;;;;19.73;12.57;;;;;;;;;;4995762;28;20116;-64
2023/05/25 12:09:35;;;;;;;19.27;12.43;;;;;;;;;;5012025;28;20056;-63
2023/05/25 12:12:03;;;;;;;20.30;13.05;;;;;;;;;;4646941;28;9999701;-62
2023/05/25 12:14:30;;;;;;;19.58;13.68;;;;;;;;;;4970637;28;20105;-63
2023/05/25 12:16:56;;;;;;;21.73;13.90;;;;;;;;;;4989483;28;20077;-64
2023/05/25 12:19:22;;;;;;;21.48;12.88;;;;;;;;;;4983743;28;20067;-65
2023/05/25 12:21:50;;;;;;;19.70;12.60;;;;;;;;;;4970252;28;20499;-66
2023/05/25 12:26:57;;;;;;;20.40;13.20;;;;;;;;;;5062897;22;20458;-62
2023/05/25 12:29:27;;;;;;;20.98;13.02;;;;;;;;;;5047654;28;20505;-60
2023/05/25 12:31:53;;;;;;;19.50;13.48;;;;;;;;;;5048772;28;20059;-61
2023/05/25 12:34:19;;;;;;;19.98;14.05;;;;;;;;;;5045904;28;20032;-60
2023/05/25 12:36:46;;;;;;;21.35;14.73;;;;;;;;;;5048485;28;20365;-60
2023/05/25 12:39:13;;;;;;;20.50;13.85;;;;;;;;;;5046339;28;20033;-59
2023/05/25 12:41:46;;;;;;;21.50;13.55;;;;;;;;;;5047770;28;20060;-63
2023/05/25 12:44:31;;;;;;;20.45;13.65;;;;;;;;;;5047520;28;20033;-58
2023/05/25 12:47:11;;;;;;;22.00;13.90;;;;;;;;;;5008028;28;20037;-60
2023/05/25 12:49:38;;;;;;;19.08;13.73;;;;;;;;;;5016236;28;20062;-59
2023/05/25 12:52:04;;;;;;;21.00;13.90;;;;;;;;;;5019870;28;20022;-60
2023/05/25 12:54:43;;;;;;;19.30;13.02;;;;;;;;;;5027258;28;20036;-61
2023/05/25 12:57:10;;;;;;;20.48;14.60;;;;;;;;;;5030395;28;20106;-60
2023/05/25 12:59:36;;;;;;;19.45;13.65;;;;;;;;;;5021316;28;20021;-59
2023/05/25 13:02:05;;;;;;;18.83;13.40;;;;;;;;;;5030470;28;20494;-60
2023/05/25 13:04:31;;;;;;;20.40;14.30;;;;;;;;;;5030253;28;20389;-60
2023/05/25 13:06:57;;;;;;;20.33;14.98;;;;;;;;;;5029389;28;20430;-55
2023/05/25 13:09:26;;;;;;;19.80;14.70;;;;;;;;;;5030803;28;20025;-56
2023/05/25 13:11:56;;;;;;;22.52;14.82;;;;;;;;;;5029262;28;20014;-55
2023/05/25 13:14:22;;;;;;;25.60;15.40;;;;;;;;;;5028212;28;20033;-57
2023/05/25 13:16:49;;;;;;;22.70;14.40;;;;;;;;;;5030790;28;20100;-56
2023/05/25 13:19:15;;;;;;;21.08;14.25;;;;;;;;;;5037072;28;20094;-56
2023/05/25 13:21:41;;;;;;;20.33;13.88;;;;;;;;;;5049580;28;20465;-57
2023/05/25 13:24:07;;;;;;;20.02;15.00;;;;;;;;;;5048364;28;20028;-65
2023/05/25 13:26:33;;;;;;;21.85;14.98;;;;;;;;;;5049902;28;20420;-60
2023/05/25 13:28:59;;;;;;;19.65;15.25;;;;;;;;;;5049845;28;20025;-60
2023/05/25 13:31:26;;;;;;;22.73;15.43;;;;;;;;;;5034366;28;20052;-60
2023/05/25 13:33:52;;;;;;;19.85;14.15;;;;;;;;;;5029659;28;20550;-58
2023/05/25 13:36:18;;;;;;;22.10;15.13;;;;;;;;;;5028631;28;20389;-61
2023/05/25 13:38:44;;;;;;;24.13;15.88;;;;;;;;;;5028841;28;20029;-60
2023/05/25 13:41:10;;;;;;;20.77;14.93;;;;;;;;;;5028310;28;20032;-61
2023/05/25 13:43:36;;;;;;;23.40;15.13;;;;;;;;;;5028205;28;20030;-56
2023/05/25 13:46:02;;;;;;;23.88;14.50;;;;;;;;;;5028603;28;20033;-58
2023/05/25 13:48:28;;;;;;;23.58;15.00;;;;;;;;;;5029518;28;20022;-58
2023/05/25 13:50:54;;;;;;;20.20;15.38;;;;;;;;;;5028344;28;20100;-59
2023/05/25 13:53:21;;;;;;;21.13;14.18;;;;;;;;;;5029978;28;20060;-58
2023/05/25 13:55:47;;;;;;;21.48;14.65;;;;;;;;;;5028884;28;20022;-58
2023/05/25 13:58:13;;;;;;;21.40;14.95;;;;;;;;;;5030779;28;20406;-61
2023/05/25 14:00:39;;;;;;;20.33;14.90;;;;;;;;;;5032406;28;20040;-55
2023/05/25 14:03:05;;;;;;;20.15;15.25;;;;;;;;;;5032768;28;20021;-61
2023/05/25 14:05:31;;;;;;;21.42;15.35;;;;;;;;;;5032442;28;20109;-58
2023/05/25 14:08:01;;;;;;;22.98;16.10;;;;;;;;;;4336866;28;9999935;-58
2023/05/25 14:10:27;;;;;;;21.15;15.68;;;;;;;;;;5027955;28;20040;-55
2023/05/25 14:12:53;;;;;;;21.08;15.40;;;;;;;;;;5029447;28;20037;-60
2023/05/25 14:15:19;;;;;;;22.80;15.93;;;;;;;;;;5027052;28;20055;-61
2023/05/25 14:17:45;;;;;;;22.10;14.82;;;;;;;;;;5029668;28;20373;-61
2023/05/25 14:20:14;;;;;;;22.73;15.40;;;;;;;;;;5029125;28;20021;-57